Da Nang International Airport
VVDN : now visible

Airfield :











YOU CAN JOIN US ON...

 
LOGIN :

Register | Disclaimer

   EN    FR    IT 

 









Legend :    VFR   Marginal VFR   IFR   Intensive IFR   Very Intensive IFR
Visi :
Ceiling :
>= 8 km
>= 3000ft
5 to 8 km
1000 to 3000 ft
1500m to 5 km
500 to 1000 ft
800 to 1500m
200 to 500 ft
< 800m
< 200 ft
Symbols :   Thunderstorms  Fog  Heavy snow  Heavy precipitations  Wind > 20 kt






- Airport Elevation : 33 ft
- IATA code : DAD


VVDN - Da Nang International

CURRENT METAR :
  • 270500Z 06007KT 9999 FEW015 28/22 Q1017 NOSIG

EXPIRED METARs :
  • 270430Z 10005KT 050V140 9999 FEW015 28/20 Q1018 NOSIG
  • 270400Z 10005KT 050V140 9999 FEW015 28/20 Q1018 NOSIG
  • 270330Z 08005KT 040V140 9999 FEW015 29/21 Q1018 NOSIG
  • 270300Z 07004KT 360V160 9999 FEW015 28/21 Q1018 NOSIG

TAF TAF VVDN
Valid from the 27 at 06:00 until the 28 at 06:00 UTC


270500Z 2706/2806 10008KT 9999 FEW015 SCT060
BECMG 2721/2722 4500 BR
BECMG 2800/2801 8000 NSW



MET'MAP, your aeronautical weather chart ! - Copyright ORBIFLY December 2007 - Disclaimer

ORBIFLY MET'MAP TEAM :

Programming & Development : Alexandra Zaïnal
Concept & original design : Baudouin d'Aumeries
Assistance for programming : Marc-Olivier Méhu
Technical & hardware support : Manuel Goepfert

Contact : metmap@orbifly.com




SOURCES & CREDITS :

   NOAA       Earth
Advisory